Terminal Aerodrome Forecast
Issued by NWS Medford, OR

Home | Current Version | Previous Version | Text Only | Print | Product List | Glossary On
Versions: 1 2 3 4 5 6 7 8 9 10 11 12 13
000
FTUS46 KMFR 290540
TAFMFR
TAF
KMFR 290540Z 2906/3006 VRB02KT P6SM BKN070 OVC080
     FM291800 01002KT P6SM OVC050
     FM292100 15007KT P6SM -RA OVC040
     FM292200 19006KT 6SM -RA SCT025 OVC040
     FM300000 30005KT 5SM -RA BR BKN025 OVC035=

USA.gov is the U.S. government's official web portal to all federal, state and local government web resources and services.